Latest Weather Observations for Khancoban

IDN60801

Issued at 5:32 pm EST Saturday 5 September 2015 (issued every 30 minutes, with the page automatically refreshed every 10 minutes)

About weather observations | Map of weather stations | Latest weather observations for NSW | Other Formats
Station Details ID: 072162 Name: KHANCOBAN AWS Lat: -36.23 Lon: 148.14 Height: 339.3 m
Data from the previous 72 hours. | See also: Recent months at Khancoban
Date/Time
EST
Temp
°C
App
Temp
°C
Dew
Point
Rel
Hum
%
Delta-T
°C
Wind Press
QNH
hPa
Press
MSL
hPa
Rain
since 9 am
mm
Dir
 
Spd
km/h
Gust
km/h
Spd
kts
Gust
kts
05/05:30pm 12.6 12.0 7.5 71 2.5 CALM 0 0 0 0 1020.0 1020.1 0.0
05/05:00pm 15.4 13.8 7.9 61 3.8 WNW 6 7 3 4 1019.8 1019.9 0.0
05/04:30pm 15.9 13.5 6.9 55 4.5 NW 9 13 5 7 1019.8 1019.9 0.0
05/04:00pm 16.4 13.7 5.7 49 5.2 WNW 9 11 5 6 1019.7 1019.8 0.0
05/03:30pm 16.7 14.4 5.9 49 5.3 NW 7 9 4 5 1019.8 1019.9 0.0
05/03:00pm 16.4 13.4 6.0 50 5.1 WNW 11 15 6 8 1019.9 1020.0 0.0
05/02:30pm 15.9 13.0 6.3 53 4.8 NW 11 15 6 8 1020.0 1020.1 0.0
05/02:00pm 15.7 12.9 7.0 56 4.3 NW 11 22 6 12 1020.2 1020.3 0.0
05/01:30pm 14.9 11.1 6.0 55 4.3 WNW 15 19 8 10 1020.4 1020.5 0.0
05/01:00pm 14.8 12.0 8.5 66 3.2 NW 13 17 7 9 1020.8 1021.0 0.0
05/12:30pm 14.0 11.8 8.0 67 3.0 WNW 9 13 5 7 1021.5 1021.6 0.0
05/12:00pm 12.8 10.8 8.5 75 2.2 NW 9 13 5 7 1022.0 1022.1 0.0
05/11:30am 11.4 9.1 7.5 77 1.9 WNW 9 13 5 7 1022.5 1022.6 0.0
05/11:00am 10.1 8.4 8.5 90 0.8 WNW 7 13 4 7 1023.0 1023.2 0.0
05/10:30am 8.9 7.4 8.5 97 0.2 NW 6 7 3 4 1023.5 1023.7 0.0
05/10:00am 7.3 6.3 7.3 100 0.0 NNW 2 7 1 4 1023.9 1024.1 0.0
05/09:30am 6.1 4.4 6.1 100 0.0 NNW 4 7 2 4 1024.0 1024.2 0.0
05/09:00am 5.5 4.5 5.5 100 0.0 CALM 0 0 0 0 1024.1 1024.3 0.0
05/08:30am 4.8 3.6 4.8 100 0.0 CALM 0 0 0 0 1024.2 1024.4 0.0
05/08:00am 4.1 2.8 4.1 100 0.0 CALM 0 0 0 0 1024.0 1024.2 0.0
05/07:30am 4.0 2.7 4.0 100 0.0 CALM 0 0 0 0 1023.6 1023.8 0.0
05/07:00am 3.7 2.3 3.7 100 0.0 CALM 0 0 0 0 1023.2 1023.4 0.0
05/06:30am 3.5 2.1 3.5 100 0.0 CALM 0 0 0 0 1022.8 1022.9 0.0
05/06:00am 3.2 1.7 3.2 100 0.0 CALM 0 0 0 0 1022.4 1022.5 0.0
05/05:30am 3.4 2.0 3.4 100 0.0 CALM 0 0 0 0 1022.3 1022.4 0.0
05/05:00am 3.2 1.7 3.2 100 0.0 CALM 0 0 0 0 1022.1 1022.2 0.0
05/04:30am 3.8 2.1 3.8 100 0.0 SSE 2 6 1 3 1021.7 1021.8 0.0
05/04:00am 3.9 2.2 3.9 100 0.0 NE 2 7 1 4 1021.5 1021.6 0.0
05/03:30am 4.1 2.8 4.1 100 0.0 CALM 0 0 0 0 1021.7 1021.8 0.0
05/03:00am 4.2 1.6 4.2 100 0.0 NW 7 9 4 5 1021.8 1021.9 0.0
05/02:30am 5.4 4.4 5.4 100 0.0 CALM 0 0 0 0 1022.2 1022.3 0.0
05/02:00am 5.6 4.6 5.6 100 0.0 CALM 0 0 0 0 1022.4 1022.5 0.0
05/01:30am 5.0 3.9 5.0 100 0.0 CALM 0 0 0 0 1022.5 1022.6 0.0
05/01:00am 5.3 4.2 5.3 100 0.0 CALM 0 0 0 0 1022.5 1022.6 0.0
05/12:30am 5.7 3.6 5.7 100 0.0 NW 6 7 3 4 1022.5 1022.6 0.0
05/12:00am 6.6 5.8 6.6 100 0.0 CALM 0 2 0 1 1022.5 1022.6 0.0
 
Date/Time
EST
Temp
°C
App
Temp
°C
Dew
Point
Rel
Hum
%
Delta-T
°C
Wind Press
QNH
hPa
Press
MSL
hPa
Rain
since 9 am
mm
Dir
 
Spd
km/h
Gust
km/h
Spd
kts
Gust
kts
04/11:30pm 6.9 5.0 6.9 100 0.0 NNW 6 7 3 4 1022.8 1022.9 0.0
04/11:00pm 6.6 5.8 6.6 100 0.0 CALM 0 0 0 0 1023.0 1023.2 0.0
04/10:30pm 7.3 6.7 7.3 100 0.0 CALM 0 0 0 0 1023.1 1023.3 0.0
04/10:00pm 7.2 6.6 7.2 100 0.0 CALM 0 0 0 0 1022.9 1023.0 0.0
04/09:30pm 7.5 6.9 7.4 99 0.0 CALM 0 0 0 0 1022.7 1022.8 0.0
04/09:00pm 8.0 7.1 7.9 99 0.0 NNW 2 7 1 4 1022.5 1022.6 0.0
04/08:30pm 8.4 8.0 8.1 98 0.1 CALM 0 0 0 0 1022.4 1022.5 0.0
04/08:00pm 9.4 8.4 8.9 97 0.2 S 4 7 2 4 1022.1 1022.2 0.0
04/07:30pm 9.4 9.0 8.2 92 0.6 CALM 0 0 0 0 1021.8 1021.9 0.0
04/07:00pm 10.7 9.2 8.5 86 1.1 S 6 7 3 4 1021.6 1021.7 0.0
04/06:30pm 11.2 11.0 8.9 86 1.2 CALM 0 0 0 0 1021.2 1021.4 0.0
04/06:00pm 11.7 10.1 7.8 77 1.9 N 6 9 3 5 1021.0 1021.2 0.0
04/05:30pm 14.1 12.1 6.9 62 3.6 NNE 7 9 4 5 1020.7 1020.9 0.0
04/05:00pm 13.9 11.2 7.2 64 3.3 NW 11 15 6 8 1020.5 1020.7 0.0
04/04:30pm 15.4 12.4 6.1 54 4.6 WNW 11 15 6 8 1020.4 1020.5 0.0
04/04:00pm 16.2 13.2 7.7 57 4.3 WNW 13 19 7 10 1020.3 1020.4 0.0
04/03:30pm 16.1 14.1 8.8 62 3.8 NW 9 17 5 9 1020.3 1020.4 0.0
04/03:00pm 17.0 14.8 6.2 49 5.4 WNW 7 15 4 8 1020.4 1020.5 0.0
04/02:30pm 16.5 14.3 6.3 51 5.1 WNW 7 15 4 8 1020.6 1020.8 0.0
04/02:00pm 16.2 14.1 6.6 53 4.8 WNW 7 13 4 7 1020.7 1020.9 0.0
04/01:30pm 15.9 13.7 7.7 58 4.2 NW 9 15 5 8 1021.0 1021.2 0.0
04/01:00pm 15.1 11.8 8.1 63 3.6 WNW 15 19 8 10 1021.3 1021.5 0.0
04/12:30pm 14.6 12.6 8.8 68 3.0 WNW 9 17 5 9 1021.8 1021.9 0.0
04/12:00pm 14.1 12.2 6.5 60 3.7 WNW 6 9 3 5 1022.4 1022.5 0.0
04/11:30am 13.4 12.1 7.8 69 2.8 WNW 4 7 2 4 1022.7 1022.8 0.0
04/11:00am 11.7 10.4 5.8 67 2.8 N 2 7 1 4 1022.9 1023.0 0.0
04/10:30am 10.9 9.3 6.5 74 2.1 NW 4 7 2 4 1023.1 1023.3 0.0
04/10:00am 9.8 8.3 6.9 82 1.4 WNW 4 6 2 3 1023.1 1023.3 0.0
04/09:30am 8.4 6.7 5.9 84 1.2 NW 4 9 2 5 1023.3 1023.5 0.0
04/09:00am 7.4 6.5 6.2 92 0.6 CALM 0 6 0 3 1023.5 1023.7 0.8
04/08:30am 5.9 4.6 5.9 100 0.0 N 2 6 1 3 1023.5 1023.7 0.8
04/08:00am 4.0 2.7 4.0 100 0.0 CALM 0 0 0 0 1023.4 1023.6 0.8
04/07:30am 2.2 0.6 2.2 100 0.0 CALM 0 0 0 0 1023.3 1023.5 0.8
04/07:00am 1.5 -0.3 1.5 100 0.0 CALM 0 0 0 0 1023.0 1023.2 0.8
04/06:30am 1.1 -1.1 1.1 100 0.0 N 2 6 1 3 1022.5 1022.6 0.8
04/06:00am 1.8 -1.0 1.8 100 0.0 NNE 6 9 3 5 1022.2 1022.3 0.8
04/05:30am 1.4 -0.4 1.4 100 0.0 CALM 0 0 0 0 1022.1 1022.2 0.8
04/05:00am 1.8 0.1 1.8 100 0.0 CALM 0 0 0 0 1021.9 1022.0 0.8
04/04:30am 2.5 0.9 2.5 100 0.0 CALM 0 0 0 0 1021.5 1021.6 0.8
04/04:00am 2.7 1.1 2.7 100 0.0 CALM 0 0 0 0 1021.1 1021.3 0.8
04/03:30am 2.9 1.4 2.9 100 0.0 CALM 0 2 0 1 1020.8 1021.0 0.8
04/03:00am 2.5 -0.4 2.5 100 0.0 N 7 9 4 5 1020.6 1020.8 0.8
04/02:30am 3.1 1.6 3.1 100 0.0 CALM 0 0 0 0 1020.5 1020.7 0.4
04/02:00am 2.7 0.4 2.7 100 0.0 SSW 4 7 2 4 1020.5 1020.7 0.4
04/01:30am 3.5 1.0 3.5 100 0.0 ESE 6 7 3 4 1020.4 1020.5 0.4
04/01:00am 3.3 0.5 3.2 99 0.0 SW 7 9 4 5 1019.9 1020.0 0.4
04/12:30am 4.1 2.0 4.1 100 0.0 SE 4 7 2 4 1019.9 1020.0 0.4
04/12:00am 4.2 2.9 4.1 99 0.0 CALM 0 0 0 0 1019.8 1019.9 0.4
 
Date/Time
EST
Temp
°C
App
Temp
°C
Dew
Point
Rel
Hum
%
Delta-T
°C
Wind Press
QNH
hPa
Press
MSL
hPa
Rain
since 9 am
mm
Dir
 
Spd
km/h
Gust
km/h
Spd
kts
Gust
kts
03/11:30pm 4.5 2.1 4.4 99 0.0 SSE 6 9 3 5 1019.6 1019.7 0.4
03/11:00pm 5.0 3.9 4.9 99 0.0 CALM 0 0 0 0 1019.3 1019.4 0.4
03/10:30pm 5.1 2.6 5.0 99 0.0 SSE 7 13 4 7 1019.0 1019.1 0.4
03/10:00pm 5.7 4.2 5.1 96 0.3 SSE 2 7 1 4 1018.6 1018.7 0.4
03/09:30pm 6.2 4.3 5.0 92 0.5 NNE 4 9 2 5 1018.1 1018.3 0.4
03/09:00pm 5.7 3.8 4.7 93 0.4 NNE 4 9 2 5 1017.5 1017.6 0.4
03/08:30pm 6.1 3.8 4.7 91 0.6 WNW 6 9 3 5 1016.9 1017.0 0.4
03/08:00pm 7.5 5.3 6.3 92 0.6 W 7 9 4 5 1016.8 1016.9 0.4
03/07:30pm 7.7 5.0 5.8 88 0.9 SE 9 11 5 6 1016.7 1016.8 0.4
03/07:00pm 7.7 5.0 5.8 88 0.9 SE 9 11 5 6 1016.4 1016.5 0.4
03/06:30pm 8.2 7.7 7.8 97 0.2 CALM 0 6 0 3 1015.8 1015.9 0.4
03/06:00pm 9.8 8.7 6.9 82 1.4 SE 2 6 1 3 1015.2 1015.2 0.4
03/05:30pm 11.5 9.2 7.4 76 2.0 SW 9 17 5 9 1014.3 1014.4 0.4
03/05:00pm 12.2 10.7 8.5 78 1.9 E 6 9 3 5 1013.4 1013.5 0.4
03/04:30pm 11.6 9.8 9.3 86 1.2 WSW 9 15 5 8 1013.1 1013.2 0.4
03/04:00pm 12.2 11.3 9.2 82 1.5 ENE 4 9 2 5 1012.5 1012.5 0.4
03/03:30pm 11.4 11.1 8.6 83 1.4 CALM 0 6 0 3 1012.5 1012.5 0.4
03/03:00pm 11.3 10.0 7.6 78 1.8 N 4 6 2 3 1011.8 1011.9 0.4
03/02:30pm 11.4 9.7 7.7 78 1.8 N 6 7 3 4 1010.8 1010.9 0.4
03/02:00pm 11.4 9.0 6.9 74 2.2 N 9 11 5 6 1010.3 1010.3 0.4
03/01:30pm 11.1 8.6 8.1 82 1.5 NW 11 13 6 7 1009.8 1009.8 0.4
03/01:00pm 10.8 8.0 6.9 77 1.9 NW 11 13 6 7 1009.5 1009.5 0.4
03/12:30pm 10.9 9.1 7.8 81 1.5 N 7 9 4 5 1009.3 1009.3 0.4
03/12:00pm 10.6 8.4 7.8 83 1.4 NNW 9 13 5 7 1009.2 1009.2 0.4
03/11:30am 10.2 7.9 7.3 82 1.4 NNE 9 13 5 7 1009.0 1009.0 0.4
03/11:00am 9.8 8.0 8.1 89 0.8 NNW 7 13 4 7 1008.8 1008.9 0.4
03/10:30am 10.0 7.6 7.1 82 1.4 ENE 9 15 5 8 1008.7 1008.8 0.4
03/10:00am 8.7 8.0 8.7 100 0.0 NE 2 7 1 4 1008.7 1008.8 0.4
03/09:30am 8.3 7.9 8.3 100 0.0 CALM 0 0 0 0 1008.7 1008.8 0.2
03/09:00am 8.2 7.8 8.2 100 0.0 CALM 0 0 0 0 1008.4 1008.5 14.8
03/08:30am 8.1 6.9 8.1 100 0.0 NNE 4 7 2 4 1007.8 1007.8 13.8
03/08:00am 7.9 7.4 7.9 100 0.0 CALM 0 0 0 0 1007.2 1007.2 13.2
03/07:30am 8.0 7.5 8.0 100 0.0 CALM 0 0 0 0 1006.6 1006.6 12.8
03/07:00am 8.0 7.5 8.0 100 0.0 CALM 0 0 0 0 1006.1 1006.1 12.0
03/06:30am 8.2 7.8 8.2 100 0.0 CALM 0 4 0 2 1005.7 1005.8 10.8
03/06:00am 8.3 7.9 8.3 100 0.0 CALM 0 4 0 2 1005.3 1005.3 9.2
03/05:30am 8.3 7.9 8.3 100 0.0 CALM 0 0 0 0 1004.8 1004.8 7.8
03/05:00am 8.2 6.6 8.2 100 0.0 NE 6 9 3 5 1004.5 1004.5 7.6
03/04:30am 8.2 7.8 8.2 100 0.0 CALM 0 0 0 0 1004.2 1004.2 7.2
03/04:00am 8.1 6.5 8.1 100 0.0 NE 6 7 3 4 1004.2 1004.2 7.0
03/03:30am 8.2 7.8 8.2 100 0.0 CALM 0 0 0 0 1004.1 1004.1 6.8
03/03:00am 8.2 7.0 8.2 100 0.0 NE 4 7 2 4 1004.4 1004.4 6.6
03/02:30am 8.2 7.8 8.2 100 0.0 CALM 0 0 0 0 1004.8 1004.8 5.8
03/02:00am 8.2 7.8 8.2 100 0.0 CALM 0 0 0 0 1005.3 1005.3 5.2
03/01:30am 8.1 6.9 8.1 100 0.0 ENE 4 7 2 4 1005.9 1005.9 4.8
03/01:00am 8.2 6.5 8.2 100 0.0 NE 7 11 4 6 1006.3 1006.3 4.6
03/12:30am 8.1 6.5 8.1 100 0.0 ESE 6 9 3 5 1006.9 1006.9 4.6
03/12:00am 8.1 6.0 8.1 100 0.0 S 9 15 5 8 1007.8 1007.8 3.8
 
Date/Time
EST
Temp
°C
App
Temp
°C
Dew
Point
Rel
Hum
%
Delta-T
°C
Wind Press
QNH
hPa
Press
MSL
hPa
Rain
since 9 am
mm
Dir
 
Spd
km/h
Gust
km/h
Spd
kts
Gust
kts
02/11:30pm 8.3 7.2 8.3 100 0.0 NW 4 7 2 4 1008.8 1008.9 2.8
02/11:00pm 8.4 5.9 8.3 99 0.0 NE 11 15 6 8 1009.7 1009.7 1.6
02/10:30pm 8.2 6.1 8.1 99 0.0 NW 9 11 5 6 1008.5 1008.6 0.6
02/10:00pm 8.5 5.6 8.1 97 0.2 S 13 15 7 8 1008.6 1008.7 0.2
02/09:30pm 9.2 7.3 7.6 90 0.8 E 7 11 4 6 1009.4 1009.4 0.0
02/09:00pm 8.7 7.2 7.0 89 0.8 WNW 4 7 2 4 1009.1 1009.1 0.0
02/08:30pm 9.4 7.4 7.0 85 1.1 ENE 7 11 4 6 1008.6 1008.7 0.0
02/08:00pm 8.1 6.0 6.7 91 0.7 SW 7 11 4 6 1008.8 1008.9 0.0
02/07:30pm 8.7 6.5 6.3 85 1.1 N 7 11 4 6 1009.3 1009.3 0.0
02/07:00pm 9.0 7.7 6.1 82 1.4 W 2 6 1 3 1009.0 1009.0 0.0
02/06:30pm 10.1 8.1 6.3 77 1.8 SSE 6 7 3 4 1009.2 1009.2 0.0
02/06:00pm 10.8 9.6 6.4 74 2.1 NE 2 7 1 4 1009.3 1009.3 0.0

Other Formats:

Comma delimited format used in spreadsheet applications
http://www.bom.gov.au/fwo/IDN60801/IDN60801.94919.axf

JavaScript Object Notation format (JSON) in row-major order
http://www.bom.gov.au/fwo/IDN60801/IDN60801.94919.json